sensor_id;sensor_type;location;lat;lon;timestamp;temperature;humidity
4374;DHT22;2201;51.100;6.814;2023-04-01T00:00:31;10.70;98.20
4374;DHT22;2201;51.100;6.814;2023-04-01T00:02:58;10.70;98.20
4374;DHT22;2201;51.100;6.814;2023-04-01T00:05:27;10.70;98.20
4374;DHT22;2201;51.100;6.814;2023-04-01T00:07:53;10.70;98.20
4374;DHT22;2201;51.100;6.814;2023-04-01T00:10:20;10.70;98.20
4374;DHT22;2201;51.100;6.814;2023-04-01T00:12:47;10.70;98.20
4374;DHT22;2201;51.100;6.814;2023-04-01T00:15:14;10.70;98.20
4374;DHT22;2201;51.100;6.814;2023-04-01T00:17:41;10.70;98.20
4374;DHT22;2201;51.100;6.814;2023-04-01T00:20:08;10.60;98.20
4374;DHT22;2201;51.100;6.814;2023-04-01T00:22:36;10.70;98.20
4374;DHT22;2201;51.100;6.814;2023-04-01T00:25:04;10.70;98.20
4374;DHT22;2201;51.100;6.814;2023-04-01T00:27:31;10.70;98.20
4374;DHT22;2201;51.100;6.814;2023-04-01T00:29:58;10.70;98.20
4374;DHT22;2201;51.100;6.814;2023-04-01T00:32:25;10.70;98.20
4374;DHT22;2201;51.100;6.814;2023-04-01T00:34:52;10.60;98.20
4374;DHT22;2201;51.100;6.814;2023-04-01T00:37:19;10.60;98.20
4374;DHT22;2201;51.100;6.814;2023-04-01T00:39:47;10.60;98.20
4374;DHT22;2201;51.100;6.814;2023-04-01T00:42:14;10.60;98.20
4374;DHT22;2201;51.100;6.814;2023-04-01T00:44:41;10.60;98.20
4374;DHT22;2201;51.100;6.814;2023-04-01T00:47:08;10.60;98.20
4374;DHT22;2201;51.100;6.814;2023-04-01T00:49:37;10.60;98.20
4374;DHT22;2201;51.100;6.814;2023-04-01T00:52:08;10.60;98.20
4374;DHT22;2201;51.100;6.814;2023-04-01T00:54:37;10.60;98.20
4374;DHT22;2201;51.100;6.814;2023-04-01T00:57:09;10.60;98.20
4374;DHT22;2201;51.100;6.814;2023-04-01T00:59:40;10.60;98.20
4374;DHT22;2201;51.100;6.814;2023-04-01T01:02:10;10.60;98.20
4374;DHT22;2201;51.100;6.814;2023-04-01T01:04:38;10.60;98.20
4374;DHT22;2201;51.100;6.814;2023-04-01T01:07:14;10.60;98.20
4374;DHT22;2201;51.100;6.814;2023-04-01T01:09:46;10.60;98.20
4374;DHT22;2201;51.100;6.814;2023-04-01T01:12:19;10.60;98.20
4374;DHT22;2201;51.100;6.814;2023-04-01T01:14:55;10.60;98.20
4374;DHT22;2201;51.100;6.814;2023-04-01T01:17:33;10.60;98.20
4374;DHT22;2201;51.100;6.814;2023-04-01T01:20:34;10.60;98.20
4374;DHT22;2201;51.100;6.814;2023-04-01T01:23:20;10.60;98.20
4374;DHT22;2201;51.100;6.814;2023-04-01T01:26:00;10.60;98.20
4374;DHT22;2201;51.100;6.814;2023-04-01T01:28:44;10.50;98.20
4374;DHT22;2201;51.100;6.814;2023-04-01T01:31:21;10.60;98.20
4374;DHT22;2201;51.100;6.814;2023-04-01T01:34:01;10.50;98.20
4374;DHT22;2201;51.100;6.814;2023-04-01T01:36:34;10.50;98.20
4374;DHT22;2201;51.100;6.814;2023-04-01T01:39:01;10.50;98.20
4374;DHT22;2201;51.100;6.814;2023-04-01T01:41:30;10.50;98.20
4374;DHT22;2201;51.100;6.814;2023-04-01T01:43:59;10.50;98.20
4374;DHT22;2201;51.100;6.814;2023-04-01T01:46:27;10.50;98.20
4374;DHT22;2201;51.100;6.814;2023-04-01T01:48:56;10.50;98.20
4374;DHT22;2201;51.100;6.814;2023-04-01T01:51:24;10.50;98.20
4374;DHT22;2201;51.100;6.814;2023-04-01T01:53:54;10.50;98.20
4374;DHT22;2201;51.100;6.814;2023-04-01T01:56:24;10.40;98.20
4374;DHT22;2201;51.100;6.814;2023-04-01T01:58:55;10.40;98.20
4374;DHT22;2201;51.100;6.814;2023-04-01T02:01:25;10.40;98.20
4374;DHT22;2201;51.100;6.814;2023-04-01T02:03:52;10.40;98.20
4374;DHT22;2201;51.100;6.814;2023-04-01T02:06:22;10.30;98.20
4374;DHT22;2201;51.100;6.814;2023-04-01T02:08:52;10.30;98.20
4374;DHT22;2201;51.100;6.814;2023-04-01T02:11:24;10.30;98.20
4374;DHT22;2201;51.100;6.814;2023-04-01T02:13:54;10.30;98.20
4374;DHT22;2201;51.100;6.814;2023-04-01T02:16:26;10.30;98.20
4374;DHT22;2201;51.100;6.814;2023-04-01T02:18:55;10.30;98.20
4374;DHT22;2201;51.100;6.814;2023-04-01T02:21:27;10.30;98.20
4374;DHT22;2201;51.100;6.814;2023-04-01T02:23:55;10.30;98.20
4374;DHT22;2201;51.100;6.814;2023-04-01T02:26:25;10.20;98.20
4374;DHT22;2201;51.100;6.814;2023-04-01T02:28:53;10.20;98.20
4374;DHT22;2201;51.100;6.814;2023-04-01T02:31:21;10.20;98.20
4374;DHT22;2201;51.100;6.814;2023-04-01T02:33:49;10.20;98.20
4374;DHT22;2201;51.100;6.814;2023-04-01T02:36:17;10.20;98.20
4374;DHT22;2201;51.100;6.814;2023-04-01T02:38:45;10.10;98.20
4374;DHT22;2201;51.100;6.814;2023-04-01T02:41:13;10.10;98.20
4374;DHT22;2201;51.100;6.814;2023-04-01T02:43:41;10.10;98.20
4374;DHT22;2201;51.100;6.814;2023-04-01T02:46:08;10.10;98.20
4374;DHT22;2201;51.100;6.814;2023-04-01T02:48:35;10.10;98.20
4374;DHT22;2201;51.100;6.814;2023-04-01T02:51:02;10.10;98.20
4374;DHT22;2201;51.100;6.814;2023-04-01T02:53:29;10.10;98.20
4374;DHT22;2201;51.100;6.814;2023-04-01T02:55:56;10.10;98.20
4374;DHT22;2201;51.100;6.814;2023-04-01T02:58:23;10.10;98.20
4374;DHT22;2201;51.100;6.814;2023-04-01T03:00:51;10.10;98.20
4374;DHT22;2201;51.100;6.814;2023-04-01T03:03:18;10.10;98.20
4374;DHT22;2201;51.100;6.814;2023-04-01T03:05:45;10.10;98.20
4374;DHT22;2201;51.100;6.814;2023-04-01T03:08:11;10.10;98.20
4374;DHT22;2201;51.100;6.814;2023-04-01T03:10:38;10.10;98.20
4374;DHT22;2201;51.100;6.814;2023-04-01T03:13:05;10.00;98.20
4374;DHT22;2201;51.100;6.814;2023-04-01T03:15:32;10.00;98.20
4374;DHT22;2201;51.100;6.814;2023-04-01T03:18:00;10.00;98.20
4374;DHT22;2201;51.100;6.814;2023-04-01T03:20:27;10.00;98.20
4374;DHT22;2201;51.100;6.814;2023-04-01T03:22:53;10.00;98.20
4374;DHT22;2201;51.100;6.814;2023-04-01T03:25:20;10.10;98.20
4374;DHT22;2201;51.100;6.814;2023-04-01T03:27:47;10.10;98.20
4374;DHT22;2201;51.100;6.814;2023-04-01T03:30:14;10.10;98.20
4374;DHT22;2201;51.100;6.814;2023-04-01T03:32:41;10.10;98.20
4374;DHT22;2201;51.100;6.814;2023-04-01T03:35:09;10.10;98.20
4374;DHT22;2201;51.100;6.814;2023-04-01T03:37:36;10.10;98.20
4374;DHT22;2201;51.100;6.814;2023-04-01T03:40:04;10.10;98.20
4374;DHT22;2201;51.100;6.814;2023-04-01T03:42:31;10.10;98.20
4374;DHT22;2201;51.100;6.814;2023-04-01T03:44:58;10.10;98.20
4374;DHT22;2201;51.100;6.814;2023-04-01T03:47:25;10.10;98.20
4374;DHT22;2201;51.100;6.814;2023-04-01T03:49:52;10.10;98.20
4374;DHT22;2201;51.100;6.814;2023-04-01T03:52:21;10.10;98.20
4374;DHT22;2201;51.100;6.814;2023-04-01T03:54:47;10.10;98.20
4374;DHT22;2201;51.100;6.814;2023-04-01T03:57:15;10.10;98.20
4374;DHT22;2201;51.100;6.814;2023-04-01T03:59:42;10.00;98.20
4374;DHT22;2201;51.100;6.814;2023-04-01T04:02:09;10.00;98.20
4374;DHT22;2201;51.100;6.814;2023-04-01T04:04:36;10.00;98.20
4374;DHT22;2201;51.100;6.814;2023-04-01T04:07:03;10.00;98.20
4374;DHT22;2201;51.100;6.814;2023-04-01T04:09:31;10.00;98.20
4374;DHT22;2201;51.100;6.814;2023-04-01T04:11:58;10.00;98.20
4374;DHT22;2201;51.100;6.814;2023-04-01T04:14:26;10.00;98.20
4374;DHT22;2201;51.100;6.814;2023-04-01T04:16:52;10.00;98.20
4374;DHT22;2201;51.100;6.814;2023-04-01T04:19:19;10.00;98.20
4374;DHT22;2201;51.100;6.814;2023-04-01T04:21:46;10.00;98.20
4374;DHT22;2201;51.100;6.814;2023-04-01T04:24:13;10.00;98.20
4374;DHT22;2201;51.100;6.814;2023-04-01T04:26:41;10.00;98.20
4374;DHT22;2201;51.100;6.814;2023-04-01T04:29:08;10.00;98.20
4374;DHT22;2201;51.100;6.814;2023-04-01T04:31:35;10.00;98.20
4374;DHT22;2201;51.100;6.814;2023-04-01T04:34:02;10.00;98.20
4374;DHT22;2201;51.100;6.814;2023-04-01T04:36:29;10.00;98.20
4374;DHT22;2201;51.100;6.814;2023-04-01T04:38:55;10.00;98.20
4374;DHT22;2201;51.100;6.814;2023-04-01T04:41:23;10.00;98.20
4374;DHT22;2201;51.100;6.814;2023-04-01T04:43:54;10.00;98.20
4374;DHT22;2201;51.100;6.814;2023-04-01T04:46:22;10.00;98.20
4374;DHT22;2201;51.100;6.814;2023-04-01T04:48:49;10.00;98.20
4374;DHT22;2201;51.100;6.814;2023-04-01T04:51:16;10.00;98.20
4374;DHT22;2201;51.100;6.814;2023-04-01T04:53:43;10.00;98.20
4374;DHT22;2201;51.100;6.814;2023-04-01T04:56:11;10.00;98.20
4374;DHT22;2201;51.100;6.814;2023-04-01T04:58:39;10.00;98.20
4374;DHT22;2201;51.100;6.814;2023-04-01T05:01:09;10.00;98.20
4374;DHT22;2201;51.100;6.814;2023-04-01T05:03:37;10.00;98.20
4374;DHT22;2201;51.100;6.814;2023-04-01T05:06:04;10.00;98.20
4374;DHT22;2201;51.100;6.814;2023-04-01T05:08:32;10.00;98.20
4374;DHT22;2201;51.100;6.814;2023-04-01T05:10:59;10.00;98.20
4374;DHT22;2201;51.100;6.814;2023-04-01T05:13:26;10.00;98.20
4374;DHT22;2201;51.100;6.814;2023-04-01T05:15:53;10.00;98.20
4374;DHT22;2201;51.100;6.814;2023-04-01T05:18:22;10.00;98.20
4374;DHT22;2201;51.100;6.814;2023-04-01T05:20:50;10.00;98.20
4374;DHT22;2201;51.100;6.814;2023-04-01T05:23:18;10.00;98.20
4374;DHT22;2201;51.100;6.814;2023-04-01T05:25:46;10.00;98.20
4374;DHT22;2201;51.100;6.814;2023-04-01T05:28:14;10.00;98.20
4374;DHT22;2201;51.100;6.814;2023-04-01T05:30:42;10.00;98.20
4374;DHT22;2201;51.100;6.814;2023-04-01T05:33:09;10.00;98.20
4374;DHT22;2201;51.100;6.814;2023-04-01T05:35:38;10.00;98.20
4374;DHT22;2201;51.100;6.814;2023-04-01T05:38:05;10.00;98.20
4374;DHT22;2201;51.100;6.814;2023-04-01T05:40:33;10.00;98.20
4374;DHT22;2201;51.100;6.814;2023-04-01T05:42:59;10.00;98.20
4374;DHT22;2201;51.100;6.814;2023-04-01T05:45:26;10.00;98.20
4374;DHT22;2201;51.100;6.814;2023-04-01T05:47:53;10.00;98.20
4374;DHT22;2201;51.100;6.814;2023-04-01T05:50:20;10.00;98.20
4374;DHT22;2201;51.100;6.814;2023-04-01T05:52:48;10.00;98.20
4374;DHT22;2201;51.100;6.814;2023-04-01T05:55:15;10.10;98.20
4374;DHT22;2201;51.100;6.814;2023-04-01T05:57:42;10.10;98.20
4374;DHT22;2201;51.100;6.814;2023-04-01T06:00:11;10.10;98.20
4374;DHT22;2201;51.100;6.814;2023-04-01T06:02:38;10.10;98.20
4374;DHT22;2201;51.100;6.814;2023-04-01T06:05:14;10.10;98.20
4374;DHT22;2201;51.100;6.814;2023-04-01T06:07:42;10.10;98.20
4374;DHT22;2201;51.100;6.814;2023-04-01T06:10:13;10.10;98.20
4374;DHT22;2201;51.100;6.814;2023-04-01T06:12:56;10.00;98.20
4374;DHT22;2201;51.100;6.814;2023-04-01T06:15:34;10.10;98.20
4374;DHT22;2201;51.100;6.814;2023-04-01T06:18:23;10.10;98.20
4374;DHT22;2201;51.100;6.814;2023-04-01T06:20:59;10.10;98.20
4374;DHT22;2201;51.100;6.814;2023-04-01T06:23:47;10.10;98.20
4374;DHT22;2201;51.100;6.814;2023-04-01T06:26:29;10.10;98.20
4374;DHT22;2201;51.100;6.814;2023-04-01T06:29:16;10.10;98.20
4374;DHT22;2201;51.100;6.814;2023-04-01T06:32:04;10.10;98.20
4374;DHT22;2201;51.100;6.814;2023-04-01T06:34:46;10.10;98.20
4374;DHT22;2201;51.100;6.814;2023-04-01T06:40:33;10.20;98.20
4374;DHT22;2201;51.100;6.814;2023-04-01T06:43:21;10.20;98.20
4374;DHT22;2201;51.100;6.814;2023-04-01T06:45:54;10.20;98.20
4374;DHT22;2201;51.100;6.814;2023-04-01T06:48:39;10.30;98.20
4374;DHT22;2201;51.100;6.814;2023-04-01T06:51:19;10.30;98.20
4374;DHT22;2201;51.100;6.814;2023-04-01T06:53:54;10.30;98.20
4374;DHT22;2201;51.100;6.814;2023-04-01T06:56:26;10.30;98.20
4374;DHT22;2201;51.100;6.814;2023-04-01T06:58:57;10.40;98.20
4374;DHT22;2201;51.100;6.814;2023-04-01T07:01:29;10.40;98.20
4374;DHT22;2201;51.100;6.814;2023-04-01T07:04:00;10.50;98.20
4374;DHT22;2201;51.100;6.814;2023-04-01T07:06:31;10.50;98.20
4374;DHT22;2201;51.100;6.814;2023-04-01T07:09:04;10.50;98.20
4374;DHT22;2201;51.100;6.814;2023-04-01T07:11:34;10.50;98.20
4374;DHT22;2201;51.100;6.814;2023-04-01T07:14:06;10.50;98.20
4374;DHT22;2201;51.100;6.814;2023-04-01T07:16:41;10.40;98.20
4374;DHT22;2201;51.100;6.814;2023-04-01T07:19:12;10.50;98.20
4374;DHT22;2201;51.100;6.814;2023-04-01T07:21:45;10.50;98.20
4374;DHT22;2201;51.100;6.814;2023-04-01T07:24:17;10.40;98.20
4374;DHT22;2201;51.100;6.814;2023-04-01T07:26:48;10.40;98.20
4374;DHT22;2201;51.100;6.814;2023-04-01T07:29:17;10.40;98.20
4374;DHT22;2201;51.100;6.814;2023-04-01T07:31:57;10.40;98.20
4374;DHT22;2201;51.100;6.814;2023-04-01T07:34:28;10.40;98.20
4374;DHT22;2201;51.100;6.814;2023-04-01T07:37:02;10.50;98.20
4374;DHT22;2201;51.100;6.814;2023-04-01T07:39:39;10.50;98.20
4374;DHT22;2201;51.100;6.814;2023-04-01T07:42:15;10.50;98.20
4374;DHT22;2201;51.100;6.814;2023-04-01T07:44:51;10.60;98.20
4374;DHT22;2201;51.100;6.814;2023-04-01T07:47:34;10.60;98.20
4374;DHT22;2201;51.100;6.814;2023-04-01T07:50:11;10.60;98.20
4374;DHT22;2201;51.100;6.814;2023-04-01T07:52:46;10.60;98.20
4374;DHT22;2201;51.100;6.814;2023-04-01T07:55:17;10.60;98.20
4374;DHT22;2201;51.100;6.814;2023-04-01T07:57:51;10.70;98.20
4374;DHT22;2201;51.100;6.814;2023-04-01T08:00:24;10.70;98.20
4374;DHT22;2201;51.100;6.814;2023-04-01T08:03:06;10.70;98.20
4374;DHT22;2201;51.100;6.814;2023-04-01T08:05:44;10.60;98.20
4374;DHT22;2201;51.100;6.814;2023-04-01T08:08:18;10.70;98.20
4374;DHT22;2201;51.100;6.814;2023-04-01T08:10:49;10.70;98.20
4374;DHT22;2201;51.100;6.814;2023-04-01T08:13:24;10.60;98.20
4374;DHT22;2201;51.100;6.814;2023-04-01T08:15:58;10.60;98.20
4374;DHT22;2201;51.100;6.814;2023-04-01T08:18:34;10.60;98.20
4374;DHT22;2201;51.100;6.814;2023-04-01T08:21:10;10.60;98.20
4374;DHT22;2201;51.100;6.814;2023-04-01T08:23:41;10.60;98.20
4374;DHT22;2201;51.100;6.814;2023-04-01T08:26:12;10.60;98.20
4374;DHT22;2201;51.100;6.814;2023-04-01T08:28:45;10.60;98.20
4374;DHT22;2201;51.100;6.814;2023-04-01T08:31:20;10.60;98.20
4374;DHT22;2201;51.100;6.814;2023-04-01T08:33:50;10.60;98.20
4374;DHT22;2201;51.100;6.814;2023-04-01T08:36:23;10.60;98.20
4374;DHT22;2201;51.100;6.814;2023-04-01T08:38:54;10.70;98.20
4374;DHT22;2201;51.100;6.814;2023-04-01T08:41:35;10.70;98.20
4374;DHT22;2201;51.100;6.814;2023-04-01T08:44:31;10.70;98.20
4374;DHT22;2201;51.100;6.814;2023-04-01T08:47:20;10.80;98.20
4374;DHT22;2201;51.100;6.814;2023-04-01T08:52:48;10.80;98.20
4374;DHT22;2201;51.100;6.814;2023-04-01T08:55:34;10.80;98.20
4374;DHT22;2201;51.100;6.814;2023-04-01T08:58:28;10.90;98.20
4374;DHT22;2201;51.100;6.814;2023-04-01T09:01:11;10.90;98.20
4374;DHT22;2201;51.100;6.814;2023-04-01T09:04:14;10.90;98.20
4374;DHT22;2201;51.100;6.814;2023-04-01T09:06:56;10.90;98.20
4374;DHT22;2201;51.100;6.814;2023-04-01T09:12:45;11.00;98.20
4374;DHT22;2201;51.100;6.814;2023-04-01T09:15:34;11.00;98.20
4374;DHT22;2201;51.100;6.814;2023-04-01T09:24:26;11.20;98.20
4374;DHT22;2201;51.100;6.814;2023-04-01T09:27:03;11.20;98.20
4374;DHT22;2201;51.100;6.814;2023-04-01T09:29:50;11.20;98.20
4374;DHT22;2201;51.100;6.814;2023-04-01T09:32:45;11.20;98.20
4374;DHT22;2201;51.100;6.814;2023-04-01T09:35:24;11.20;98.20
4374;DHT22;2201;51.100;6.814;2023-04-01T09:37:58;11.20;98.20
4374;DHT22;2201;51.100;6.814;2023-04-01T09:40:37;11.10;98.20
4374;DHT22;2201;51.100;6.814;2023-04-01T09:43:30;11.10;98.20
4374;DHT22;2201;51.100;6.814;2023-04-01T09:46:11;11.00;98.20
4374;DHT22;2201;51.100;6.814;2023-04-01T09:49:19;11.00;98.20
4374;DHT22;2201;51.100;6.814;2023-04-01T09:52:01;11.00;98.20
4374;DHT22;2201;51.100;6.814;2023-04-01T09:54:52;11.00;98.20
4374;DHT22;2201;51.100;6.814;2023-04-01T10:00:53;10.90;98.20
4374;DHT22;2201;51.100;6.814;2023-04-01T10:25:24;11.10;98.20
4374;DHT22;2201;51.100;6.814;2023-04-01T10:34:26;11.20;98.20
4374;DHT22;2201;51.100;6.814;2023-04-01T10:37:08;11.20;98.20
4374;DHT22;2201;51.100;6.814;2023-04-01T10:49:28;11.30;98.20
4374;DHT22;2201;51.100;6.814;2023-04-01T10:58:45;11.30;98.20
4374;DHT22;2201;51.100;6.814;2023-04-01T11:10:25;11.40;98.20
4374;DHT22;2201;51.100;6.814;2023-04-01T11:19:52;11.70;98.20
4374;DHT22;2201;51.100;6.814;2023-04-01T11:22:40;11.70;98.20
4374;DHT22;2201;51.100;6.814;2023-04-01T11:25:23;11.70;98.20
4374;DHT22;2201;51.100;6.814;2023-04-01T11:31:09;11.60;98.20
4374;DHT22;2201;51.100;6.814;2023-04-01T11:33:43;11.60;98.20
4374;DHT22;2201;51.100;6.814;2023-04-01T11:36:20;11.70;98.20
4374;DHT22;2201;51.100;6.814;2023-04-01T11:39:00;11.80;98.20
4374;DHT22;2201;51.100;6.814;2023-04-01T11:41:34;11.80;98.20
4374;DHT22;2201;51.100;6.814;2023-04-01T11:44:18;11.90;98.20
4374;DHT22;2201;51.100;6.814;2023-04-01T11:46:56;11.90;98.20
4374;DHT22;2201;51.100;6.814;2023-04-01T11:49:44;12.00;98.20
4374;DHT22;2201;51.100;6.814;2023-04-01T11:52:25;12.00;98.20
4374;DHT22;2201;51.100;6.814;2023-04-01T11:55:09;12.00;98.20
4374;DHT22;2201;51.100;6.814;2023-04-01T11:57:52;12.10;98.20
4374;DHT22;2201;51.100;6.814;2023-04-01T12:03:32;12.10;98.20
4374;DHT22;2201;51.100;6.814;2023-04-01T12:06:11;12.20;98.20
4374;DHT22;2201;51.100;6.814;2023-04-01T12:08:46;12.30;98.20
4374;DHT22;2201;51.100;6.814;2023-04-01T12:11:26;12.30;98.20
4374;DHT22;2201;51.100;6.814;2023-04-01T12:13:57;12.40;98.20
4374;DHT22;2201;51.100;6.814;2023-04-01T12:16:38;12.40;98.20
4374;DHT22;2201;51.100;6.814;2023-04-01T12:19:14;12.40;98.20
4374;DHT22;2201;51.100;6.814;2023-04-01T12:21:48;12.40;98.20
4374;DHT22;2201;51.100;6.814;2023-04-01T12:24:29;12.40;98.20
4374;DHT22;2201;51.100;6.814;2023-04-01T12:27:06;12.40;98.20
4374;DHT22;2201;51.100;6.814;2023-04-01T12:29:53;12.40;98.20
4374;DHT22;2201;51.100;6.814;2023-04-01T12:32:33;12.40;98.20
4374;DHT22;2201;51.100;6.814;2023-04-01T12:35:15;12.30;98.20
4374;DHT22;2201;51.100;6.814;2023-04-01T12:37:54;12.30;98.20
4374;DHT22;2201;51.100;6.814;2023-04-01T12:40:39;12.30;98.20
4374;DHT22;2201;51.100;6.814;2023-04-01T12:43:27;12.30;98.20
4374;DHT22;2201;51.100;6.814;2023-04-01T12:46:03;12.20;98.20
4374;DHT22;2201;51.100;6.814;2023-04-01T12:48:46;12.20;98.20
4374;DHT22;2201;51.100;6.814;2023-04-01T12:51:26;12.10;98.20
4374;DHT22;2201;51.100;6.814;2023-04-01T12:54:16;12.00;98.20
4374;DHT22;2201;51.100;6.814;2023-04-01T12:56:53;12.00;98.20
4374;DHT22;2201;51.100;6.814;2023-04-01T12:59:32;11.90;98.20
4374;DHT22;2201;51.100;6.814;2023-04-01T13:02:12;11.90;98.20
4374;DHT22;2201;51.100;6.814;2023-04-01T13:05:05;11.80;98.20
4374;DHT22;2201;51.100;6.814;2023-04-01T13:07:52;11.80;98.20
4374;DHT22;2201;51.100;6.814;2023-04-01T13:10:44;11.80;98.20
4374;DHT22;2201;51.100;6.814;2023-04-01T13:16:18;11.80;98.20
4374;DHT22;2201;51.100;6.814;2023-04-01T13:18:56;11.80;98.20
4374;DHT22;2201;51.100;6.814;2023-04-01T13:21:34;11.80;98.20
4374;DHT22;2201;51.100;6.814;2023-04-01T13:24:06;11.80;98.20
4374;DHT22;2201;51.100;6.814;2023-04-01T13:26:40;11.80;98.20
4374;DHT22;2201;51.100;6.814;2023-04-01T13:29:13;11.80;98.20
4374;DHT22;2201;51.100;6.814;2023-04-01T13:31:51;11.80;98.20
4374;DHT22;2201;51.100;6.814;2023-04-01T13:34:36;11.80;98.20
4374;DHT22;2201;51.100;6.814;2023-04-01T13:37:17;11.80;98.20
4374;DHT22;2201;51.100;6.814;2023-04-01T13:39:56;11.90;98.20
4374;DHT22;2201;51.100;6.814;2023-04-01T13:42:28;12.00;98.20
4374;DHT22;2201;51.100;6.814;2023-04-01T13:45:02;12.00;98.20
4374;DHT22;2201;51.100;6.814;2023-04-01T13:47:56;12.00;98.20
4374;DHT22;2201;51.100;6.814;2023-04-01T13:51:08;12.10;98.20
4374;DHT22;2201;51.100;6.814;2023-04-01T13:56:54;12.30;98.20
4374;DHT22;2201;51.100;6.814;2023-04-01T13:59:40;12.30;98.20
4374;DHT22;2201;51.100;6.814;2023-04-01T14:02:26;12.40;98.20
4374;DHT22;2201;51.100;6.814;2023-04-01T14:05:09;12.40;98.20
4374;DHT22;2201;51.100;6.814;2023-04-01T14:07:53;12.40;98.20
4374;DHT22;2201;51.100;6.814;2023-04-01T14:10:28;12.50;98.20
4374;DHT22;2201;51.100;6.814;2023-04-01T14:13:01;12.50;98.20
4374;DHT22;2201;51.100;6.814;2023-04-01T14:15:48;12.60;98.20
4374;DHT22;2201;51.100;6.814;2023-04-01T14:18:37;12.50;98.20
4374;DHT22;2201;51.100;6.814;2023-04-01T14:21:17;12.50;98.20
4374;DHT22;2201;51.100;6.814;2023-04-01T14:27:09;12.40;98.20
4374;DHT22;2201;51.100;6.814;2023-04-01T14:29:48;12.40;98.20
4374;DHT22;2201;51.100;6.814;2023-04-01T14:32:27;12.50;98.20
4374;DHT22;2201;51.100;6.814;2023-04-01T14:35:17;12.50;98.20
4374;DHT22;2201;51.100;6.814;2023-04-01T14:37:58;12.50;98.20
4374;DHT22;2201;51.100;6.814;2023-04-01T14:40:35;12.50;98.20
4374;DHT22;2201;51.100;6.814;2023-04-01T14:43:23;12.50;98.20
4374;DHT22;2201;51.100;6.814;2023-04-01T14:46:17;12.40;98.20
4374;DHT22;2201;51.100;6.814;2023-04-01T14:48:52;12.30;98.20
4374;DHT22;2201;51.100;6.814;2023-04-01T14:51:28;12.20;98.20
4374;DHT22;2201;51.100;6.814;2023-04-01T14:54:02;12.10;98.20
4374;DHT22;2201;51.100;6.814;2023-04-01T14:56:41;12.00;98.20
4374;DHT22;2201;51.100;6.814;2023-04-01T14:59:13;11.90;98.20
4374;DHT22;2201;51.100;6.814;2023-04-01T15:01:45;11.90;98.20
4374;DHT22;2201;51.100;6.814;2023-04-01T15:04:41;11.80;98.20
4374;DHT22;2201;51.100;6.814;2023-04-01T15:07:35;11.80;98.20
4374;DHT22;2201;51.100;6.814;2023-04-01T15:10:12;11.90;98.20
4374;DHT22;2201;51.100;6.814;2023-04-01T15:12:51;12.00;98.20
4374;DHT22;2201;51.100;6.814;2023-04-01T15:15:29;12.10;98.20
4374;DHT22;2201;51.100;6.814;2023-04-01T15:18:07;12.20;98.20
4374;DHT22;2201;51.100;6.814;2023-04-01T15:23:31;12.30;98.20
4374;DHT22;2201;51.100;6.814;2023-04-01T15:26:13;12.30;98.20
4374;DHT22;2201;51.100;6.814;2023-04-01T15:28:53;12.30;98.20
4374;DHT22;2201;51.100;6.814;2023-04-01T15:31:27;12.30;98.20
4374;DHT22;2201;51.100;6.814;2023-04-01T15:37:00;12.30;98.20
4374;DHT22;2201;51.100;6.814;2023-04-01T15:39:40;12.30;98.20
4374;DHT22;2201;51.100;6.814;2023-04-01T15:42:21;12.20;98.20
4374;DHT22;2201;51.100;6.814;2023-04-01T15:44:58;12.20;98.20
4374;DHT22;2201;51.100;6.814;2023-04-01T15:47:33;12.10;98.20
4374;DHT22;2201;51.100;6.814;2023-04-01T15:50:25;12.00;98.20
4374;DHT22;2201;51.100;6.814;2023-04-01T15:53:04;12.00;98.20
4374;DHT22;2201;51.100;6.814;2023-04-01T15:55:39;12.00;98.20
4374;DHT22;2201;51.100;6.814;2023-04-01T15:58:28;11.90;98.20
4374;DHT22;2201;51.100;6.814;2023-04-01T16:01:04;11.90;98.20
4374;DHT22;2201;51.100;6.814;2023-04-01T16:03:39;11.90;98.20
4374;DHT22;2201;51.100;6.814;2023-04-01T16:06:34;11.90;98.20
4374;DHT22;2201;51.100;6.814;2023-04-01T16:09:13;11.90;98.20
4374;DHT22;2201;51.100;6.814;2023-04-01T16:11:50;11.80;98.20
4374;DHT22;2201;51.100;6.814;2023-04-01T16:14:31;11.80;98.20
4374;DHT22;2201;51.100;6.814;2023-04-01T16:17:19;11.70;98.20
4374;DHT22;2201;51.100;6.814;2023-04-01T16:20:03;11.70;98.20
4374;DHT22;2201;51.100;6.814;2023-04-01T16:22:44;11.60;98.20
4374;DHT22;2201;51.100;6.814;2023-04-01T16:25:32;11.60;98.20
4374;DHT22;2201;51.100;6.814;2023-04-01T16:28:15;11.60;98.20
4374;DHT22;2201;51.100;6.814;2023-04-01T16:30:48;11.60;98.20
4374;DHT22;2201;51.100;6.814;2023-04-01T16:33:22;11.60;98.20
4374;DHT22;2201;51.100;6.814;2023-04-01T16:35:56;11.50;98.20
4374;DHT22;2201;51.100;6.814;2023-04-01T16:38:27;11.50;98.20
4374;DHT22;2201;51.100;6.814;2023-04-01T16:41:10;11.50;98.20
4374;DHT22;2201;51.100;6.814;2023-04-01T16:43:42;11.50;98.20
4374;DHT22;2201;51.100;6.814;2023-04-01T16:46:26;11.50;98.20
4374;DHT22;2201;51.100;6.814;2023-04-01T16:48:59;11.50;98.20
4374;DHT22;2201;51.100;6.814;2023-04-01T16:51:36;11.40;98.20
4374;DHT22;2201;51.100;6.814;2023-04-01T16:54:10;11.40;98.20
4374;DHT22;2201;51.100;6.814;2023-04-01T16:56:44;11.40;98.20
4374;DHT22;2201;51.100;6.814;2023-04-01T16:59:21;11.30;98.20
4374;DHT22;2201;51.100;6.814;2023-04-01T17:01:52;11.30;98.20
4374;DHT22;2201;51.100;6.814;2023-04-01T17:04:29;11.30;98.20
4374;DHT22;2201;51.100;6.814;2023-04-01T17:07:05;11.30;98.20
4374;DHT22;2201;51.100;6.814;2023-04-01T17:09:45;11.30;98.20
4374;DHT22;2201;51.100;6.814;2023-04-01T17:12:16;11.30;98.20
4374;DHT22;2201;51.100;6.814;2023-04-01T17:14:53;11.20;98.20
4374;DHT22;2201;51.100;6.814;2023-04-01T17:17:29;11.20;98.20
4374;DHT22;2201;51.100;6.814;2023-04-01T17:23:16;11.20;98.20
4374;DHT22;2201;51.100;6.814;2023-04-01T17:25:55;11.20;98.20
4374;DHT22;2201;51.100;6.814;2023-04-01T17:28:31;11.20;98.20
4374;DHT22;2201;51.100;6.814;2023-04-01T17:31:10;11.20;98.20
4374;DHT22;2201;51.100;6.814;2023-04-01T17:34:01;11.20;98.20
4374;DHT22;2201;51.100;6.814;2023-04-01T17:36:41;11.10;98.20
4374;DHT22;2201;51.100;6.814;2023-04-01T17:39:22;11.10;98.20
4374;DHT22;2201;51.100;6.814;2023-04-01T17:41:57;11.10;98.20
4374;DHT22;2201;51.100;6.814;2023-04-01T17:44:38;11.00;98.20
4374;DHT22;2201;51.100;6.814;2023-04-01T17:47:36;11.00;98.20
4374;DHT22;2201;51.100;6.814;2023-04-01T17:50:18;11.00;98.20
4374;DHT22;2201;51.100;6.814;2023-04-01T17:52:56;10.90;98.20
4374;DHT22;2201;51.100;6.814;2023-04-01T17:55:43;10.90;98.20
4374;DHT22;2201;51.100;6.814;2023-04-01T17:58:17;10.80;98.20
4374;DHT22;2201;51.100;6.814;2023-04-01T18:01:10;10.80;98.20
4374;DHT22;2201;51.100;6.814;2023-04-01T18:03:59;10.70;98.20
4374;DHT22;2201;51.100;6.814;2023-04-01T18:06:35;10.70;98.20
4374;DHT22;2201;51.100;6.814;2023-04-01T18:09:13;10.70;98.20
4374;DHT22;2201;51.100;6.814;2023-04-01T18:11:54;10.70;98.20
4374;DHT22;2201;51.100;6.814;2023-04-01T18:14:45;10.60;98.20
4374;DHT22;2201;51.100;6.814;2023-04-01T18:17:24;10.60;98.20
4374;DHT22;2201;51.100;6.814;2023-04-01T18:20:02;10.60;98.20
4374;DHT22;2201;51.100;6.814;2023-04-01T18:22:40;10.60;98.20
4374;DHT22;2201;51.100;6.814;2023-04-01T18:25:17;10.50;98.20
4374;DHT22;2201;51.100;6.814;2023-04-01T18:27:49;10.50;98.20
4374;DHT22;2201;51.100;6.814;2023-04-01T18:30:21;10.50;98.20
4374;DHT22;2201;51.100;6.814;2023-04-01T18:32:52;10.50;98.20
4374;DHT22;2201;51.100;6.814;2023-04-01T18:35:29;10.50;98.20
4374;DHT22;2201;51.100;6.814;2023-04-01T18:38:06;10.40;98.20